Bella Coola Airport
CYBD : now visible

Airfield :











YOU CAN JOIN US ON...

 
LOGIN :

Register | Disclaimer

   EN    FR    IT 

 









Legend :    VFR   Marginal VFR   IFR   Intensive IFR   Very Intensive IFR
Visi :
Ceiling :
>= 8 km
>= 3000ft
5 to 8 km
1000 to 3000 ft
1500m to 5 km
500 to 1000 ft
800 to 1500m
200 to 500 ft
< 800m
< 200 ft
Symbols :   Thunderstorms  Fog  Heavy snow  Heavy precipitations  Wind > 20 kt






- Airport Elevation : 117 ft
- IATA code : QBC


CYBD - Bella Coola

CURRENT METAR :
  • 202200Z 00000KT 4SM BR FEW007 SCT012 OVC018 02/01 A2978 RMK SF1SC3SC4 MIFG ON RWY W END SLP089

EXPIRED METARs :
  • 202151Z VRB02KT 4SM BR FEW007 SCT012 OVC018 02/02 A2979 RMK SF1SC3SC4 SLP091
  • 202100Z 07005KT 030V130 4SM -RA BR FEW003 SCT013 BKN015 BKN018 02/02 A2980 RMK SF1SC2SC3SC1 SLP095
  • 202000Z 10003KT 070V140 6SM -RA BR FEW003 FEW011 BKN015 OVC020 01/01 A2980 RMK ST1SC2SC3SC3 ST TR SLP095

TAF N/A



MET'MAP, your aeronautical weather chart ! - Copyright ORBIFLY December 2007 - Disclaimer

ORBIFLY MET'MAP TEAM :

Programming & Development : Alexandra Zaïnal
Concept & original design : Baudouin d'Aumeries
Assistance for programming : Marc-Olivier Méhu
Technical & hardware support : Manuel Goepfert

Contact : metmap@orbifly.com




SOURCES & CREDITS :

   NOAA       Earth
Advisory